createdAt,value
2023-11-01T00:00:31.545Z,11.70
2023-11-01T00:02:58.990Z,11.70
2023-11-01T00:05:26.409Z,11.60
2023-11-01T00:07:53.710Z,11.50
2023-11-01T00:10:21.035Z,11.70
2023-11-01T00:12:48.378Z,11.70
2023-11-01T00:15:15.835Z,11.70
2023-11-01T00:17:43.637Z,11.70
2023-11-01T00:20:11.469Z,11.70
2023-11-01T00:22:38.780Z,11.70
2023-11-01T00:25:06.540Z,11.70
2023-11-01T00:27:34.096Z,11.80
2023-11-01T00:30:01.744Z,11.70
2023-11-01T00:32:29.172Z,11.70
2023-11-01T00:34:56.561Z,11.70
2023-11-01T00:37:23.970Z,11.80
2023-11-01T00:39:51.354Z,11.70
2023-11-01T00:42:19.378Z,11.80
2023-11-01T00:44:47.163Z,11.80
2023-11-01T00:47:14.621Z,11.70
2023-11-01T00:49:41.995Z,11.90
2023-11-01T00:52:09.283Z,11.70
2023-11-01T00:54:36.672Z,11.70
2023-11-01T00:57:04.148Z,11.70
2023-11-01T00:59:31.504Z,11.70
2023-11-01T01:01:58.884Z,11.80
2023-11-01T01:04:26.179Z,11.80
2023-11-01T01:06:53.513Z,11.80
2023-11-01T01:09:20.905Z,11.80
2023-11-01T01:11:48.258Z,11.80
2023-11-01T01:14:17.639Z,11.80
2023-11-01T01:16:45.677Z,11.80
2023-11-01T01:19:13.086Z,11.80
2023-11-01T01:21:40.362Z,11.70
2023-11-01T01:24:07.898Z,11.70
2023-11-01T01:26:35.248Z,11.80
2023-11-01T01:29:02.590Z,11.80
2023-11-01T01:31:30.819Z,11.70
2023-11-01T01:33:58.137Z,11.80
2023-11-01T01:36:25.446Z,11.70
2023-11-01T01:38:52.981Z,11.70
2023-11-01T01:41:20.608Z,11.90
2023-11-01T01:43:48.688Z,11.80
2023-11-01T01:46:17.433Z,11.70
2023-11-01T01:48:46.343Z,11.80
2023-11-01T01:51:14.410Z,11.80
2023-11-01T01:53:45.514Z,11.80
2023-11-01T01:56:14.417Z,11.70
2023-11-01T01:58:42.988Z,11.80
2023-11-01T02:01:11.146Z,12.40
2023-11-01T02:03:39.012Z,11.90
2023-11-01T02:06:07.122Z,11.90
2023-11-01T02:08:34.925Z,11.90
2023-11-01T02:11:02.321Z,11.90
2023-11-01T02:13:29.936Z,11.90
2023-11-01T02:15:57.516Z,11.90
2023-11-01T02:18:25.016Z,11.90
2023-11-01T02:20:53.589Z,12.00
2023-11-01T02:23:37.354Z,11.90
2023-11-01T02:26:04.817Z,11.90
2023-11-01T02:28:32.314Z,12.00
2023-11-01T02:30:59.764Z,12.00
2023-11-01T02:33:27.044Z,12.00
2023-11-01T02:35:54.361Z,12.00
2023-11-01T02:38:21.703Z,12.00
2023-11-01T02:40:49.341Z,12.00
2023-11-01T02:43:17.556Z,11.90
2023-11-01T02:45:47.075Z,12.30
2023-11-01T02:48:14.546Z,12.10
2023-11-01T02:50:42.091Z,12.20
2023-11-01T02:53:09.731Z,12.10
2023-11-01T02:55:37.099Z,12.20
2023-11-01T02:58:04.711Z,12.20
2023-11-01T03:00:32.011Z,12.20
2023-11-01T03:02:59.378Z,12.30
2023-11-01T03:05:28.344Z,12.30
2023-11-01T03:07:55.866Z,12.30
2023-11-01T03:10:23.400Z,12.30
2023-11-01T03:12:50.705Z,12.30
2023-11-01T03:15:18.342Z,12.40
2023-11-01T03:17:45.765Z,12.40
2023-11-01T03:20:13.302Z,12.40
2023-11-01T03:22:40.700Z,12.40
2023-11-01T03:25:08.403Z,12.40
2023-11-01T03:27:35.783Z,12.50
2023-11-01T03:30:03.237Z,12.40
2023-11-01T03:32:30.726Z,12.50
2023-11-01T03:34:58.104Z,12.50
2023-11-01T03:37:25.408Z,12.80
2023-11-01T03:39:53.244Z,12.50
2023-11-01T03:42:22.337Z,12.50
2023-11-01T03:44:51.161Z,12.50
2023-11-01T03:47:18.591Z,12.60
2023-11-01T03:49:46.139Z,12.70
2023-11-01T03:52:13.664Z,12.60
2023-11-01T03:54:40.982Z,12.60
2023-11-01T03:57:08.285Z,12.70
2023-11-01T03:59:35.641Z,12.70
2023-11-01T04:02:03.698Z,12.80
2023-11-01T04:04:31.377Z,12.70
2023-11-01T04:06:58.757Z,12.70
2023-11-01T04:09:26.215Z,12.70
2023-11-01T04:11:53.649Z,12.60
2023-11-01T04:14:21.085Z,12.70
2023-11-01T04:16:48.349Z,12.70
2023-11-01T04:19:17.131Z,12.70
2023-11-01T04:21:44.449Z,12.70
2023-11-01T04:24:12.077Z,12.60
2023-11-01T04:26:39.716Z,12.60
2023-11-01T04:29:07.166Z,12.60
2023-11-01T04:31:34.506Z,12.60
2023-11-01T04:34:01.866Z,12.00
2023-11-01T04:36:29.864Z,12.60
2023-11-01T04:38:58.463Z,12.60
2023-11-01T04:41:29.166Z,12.10
2023-11-01T04:43:56.963Z,13.30
2023-11-01T04:46:24.653Z,12.50
2023-11-01T04:48:52.226Z,12.50
2023-11-01T04:51:19.681Z,12.50
2023-11-01T04:53:47.830Z,12.50
2023-11-01T04:56:15.254Z,12.50
2023-11-01T04:58:42.631Z,12.40
2023-11-01T05:01:10.103Z,12.40
2023-11-01T05:03:38.752Z,12.50
2023-11-01T05:06:07.058Z,12.40
2023-11-01T05:08:35.969Z,12.80
2023-11-01T05:11:03.740Z,12.40
2023-11-01T05:13:31.062Z,12.40
2023-11-01T05:15:58.359Z,12.40
2023-11-01T05:18:26.246Z,12.40
2023-11-01T05:20:53.760Z,12.40
2023-11-01T05:23:21.283Z,12.40
2023-11-01T05:25:50.326Z,12.30
2023-11-01T05:28:18.597Z,12.30
2023-11-01T05:30:48.983Z,12.30
2023-11-01T05:33:16.543Z,12.30
2023-11-01T05:35:45.193Z,12.40
2023-11-01T05:38:13.378Z,12.30
2023-11-01T05:40:40.803Z,12.30
2023-11-01T05:43:08.110Z,12.30
2023-11-01T05:45:35.457Z,12.30
2023-11-01T05:48:09.794Z,11.50
2023-11-01T05:50:38.244Z,12.90
2023-11-01T05:53:10.654Z,12.40
2023-11-01T05:55:54.065Z,12.40
2023-11-01T05:58:27.133Z,12.40
2023-11-01T06:00:55.032Z,12.40
2023-11-01T06:03:26.377Z,12.50
2023-11-01T06:05:58.901Z,12.50
2023-11-01T06:08:27.400Z,12.50
2023-11-01T06:10:57.770Z,12.50
2023-11-01T06:13:25.144Z,12.50
2023-11-01T06:15:53.017Z,12.60
2023-11-01T06:18:22.234Z,12.60
2023-11-01T06:20:49.679Z,12.60
2023-11-01T06:23:17.093Z,12.60
2023-11-01T06:25:45.270Z,12.60
2023-11-01T06:28:12.643Z,12.60
2023-11-01T06:30:40.061Z,12.60
2023-11-01T06:33:07.580Z,12.60
2023-11-01T06:35:35.071Z,12.60
2023-11-01T06:38:02.492Z,12.60
2023-11-01T06:40:30.329Z,12.60
2023-11-01T06:42:57.655Z,12.70
2023-11-01T06:45:24.945Z,12.30
2023-11-01T06:47:52.366Z,12.60
2023-11-01T06:50:19.915Z,12.70
2023-11-01T06:52:47.288Z,12.60
2023-11-01T06:55:14.841Z,12.70
2023-11-01T06:57:42.364Z,12.70
2023-11-01T07:00:10.715Z,12.70
2023-11-01T07:02:38.265Z,12.70
2023-11-01T07:05:08.450Z,12.70
2023-11-01T07:07:36.022Z,12.70
2023-11-01T07:10:03.745Z,12.80
2023-11-01T07:12:31.049Z,12.70
2023-11-01T07:14:58.341Z,12.60
2023-11-01T07:17:28.952Z,12.70
2023-11-01T07:19:57.201Z,13.20
2023-11-01T07:22:24.570Z,13.40
2023-11-01T07:24:52.059Z,12.70
2023-11-01T07:27:19.372Z,12.70
2023-11-01T07:29:46.819Z,12.70
2023-11-01T07:32:14.282Z,13.40
2023-11-01T07:34:41.688Z,12.70
2023-11-01T07:37:09.101Z,12.70
2023-11-01T07:39:36.444Z,12.70
2023-11-01T07:42:05.223Z,12.70
2023-11-01T07:44:32.607Z,12.70
2023-11-01T07:47:00.000Z,12.80
2023-11-01T07:49:27.293Z,12.80
2023-11-01T07:51:54.679Z,12.70
2023-11-01T07:54:22.028Z,12.80
2023-11-01T07:56:49.389Z,12.70
2023-11-01T07:59:16.781Z,12.70
2023-11-01T08:01:45.091Z,12.70
2023-11-01T08:04:12.679Z,12.70
2023-11-01T08:06:40.101Z,12.70
2023-11-01T08:09:07.394Z,12.60
2023-11-01T08:11:34.949Z,12.60
2023-11-01T08:14:02.316Z,12.60
2023-11-01T08:16:29.763Z,12.60
2023-11-01T08:18:57.156Z,12.60
2023-11-01T08:21:24.441Z,12.60
2023-11-01T08:23:51.925Z,12.60
2023-11-01T08:26:24.440Z,12.60
2023-11-01T08:28:51.848Z,12.50
2023-11-01T08:31:19.284Z,12.50
2023-11-01T08:33:46.743Z,12.60
2023-11-01T08:36:14.137Z,12.70
2023-11-01T08:38:41.494Z,12.60
2023-11-01T08:41:10.506Z,12.60
2023-11-01T08:43:37.829Z,12.70
2023-11-01T08:46:06.462Z,12.70
2023-11-01T08:48:34.078Z,12.70
2023-11-01T08:51:01.486Z,12.70
2023-11-01T08:53:31.469Z,12.70
2023-11-01T08:56:00.110Z,12.40
2023-11-01T08:58:27.485Z,12.70
2023-11-01T09:00:54.792Z,12.70
2023-11-01T09:03:25.405Z,12.70
2023-11-01T09:05:53.952Z,12.70
2023-11-01T09:08:21.967Z,12.70
2023-11-01T09:10:51.562Z,12.70
2023-11-01T09:13:20.298Z,12.70
2023-11-01T09:15:47.717Z,12.60
2023-11-01T09:18:15.132Z,12.60
2023-11-01T09:20:42.581Z,12.60
2023-11-01T09:23:09.920Z,12.60
2023-11-01T09:25:37.510Z,12.50
2023-11-01T09:28:05.288Z,12.50
2023-11-01T09:30:32.750Z,12.50
2023-11-01T09:33:00.272Z,12.50
2023-11-01T09:35:27.783Z,12.50
2023-11-01T09:37:55.167Z,12.50
2023-11-01T09:40:22.612Z,12.50
2023-11-01T09:42:50.044Z,12.50
2023-11-01T09:45:19.608Z,12.50
2023-11-01T09:47:48.720Z,12.50
2023-11-01T09:50:18.394Z,12.50
2023-11-01T09:52:45.701Z,12.50
2023-11-01T09:55:14.622Z,12.50
2023-11-01T09:57:44.895Z,12.50
2023-11-01T10:00:13.143Z,12.50
2023-11-01T10:02:40.847Z,12.50
2023-11-01T10:05:08.339Z,12.50
2023-11-01T10:07:35.956Z,12.50
2023-11-01T10:10:05.169Z,12.50
2023-11-01T10:12:32.739Z,12.60
2023-11-01T10:15:02.429Z,12.60
2023-11-01T10:17:29.883Z,12.60
2023-11-01T10:19:57.305Z,12.70
2023-11-01T10:22:24.956Z,12.70
2023-11-01T10:24:52.762Z,12.70
2023-11-01T10:27:20.076Z,12.70
2023-11-01T10:29:48.718Z,13.20
2023-11-01T10:32:16.548Z,12.80
2023-11-01T10:34:44.112Z,12.80
2023-11-01T10:37:11.529Z,12.70
2023-11-01T10:39:41.360Z,12.80
2023-11-01T10:42:10.784Z,12.90
2023-11-01T10:44:39.686Z,12.90
2023-11-01T10:47:09.694Z,12.90
2023-11-01T10:49:38.406Z,13.00
2023-11-01T10:52:06.903Z,13.00
2023-11-01T10:54:35.462Z,13.00
2023-11-01T10:57:03.504Z,13.10
2023-11-01T11:00:09.830Z,13.10
2023-11-01T11:02:49.894Z,13.10
2023-11-01T11:05:23.964Z,13.10
2023-11-01T11:07:54.168Z,13.10
2023-11-01T11:10:28.530Z,13.10
2023-11-01T11:13:11.676Z,13.10
2023-11-01T11:15:57.099Z,13.10
2023-11-01T11:18:25.978Z,13.20
2023-11-01T11:20:54.939Z,13.20
2023-11-01T11:23:32.955Z,13.20
2023-11-01T11:26:02.971Z,13.20
2023-11-01T11:28:33.363Z,13.20
2023-11-01T11:31:14.529Z,13.20
2023-11-01T11:33:48.258Z,13.20
2023-11-01T11:36:20.689Z,13.20
2023-11-01T11:38:50.774Z,13.20
2023-11-01T11:41:20.568Z,13.20
2023-11-01T11:44:15.068Z,13.20
2023-11-01T11:46:54.974Z,13.90
2023-11-01T11:49:33.574Z,13.20
2023-11-01T11:52:10.645Z,13.20
2023-11-01T11:54:38.790Z,13.20
2023-11-01T11:57:12.582Z,13.20
2023-11-01T11:59:43.004Z,13.20
2023-11-01T12:02:13.494Z,13.10
2023-11-01T12:04:41.667Z,13.10
2023-11-01T12:07:09.739Z,13.10
2023-11-01T12:09:37.072Z,13.10
2023-11-01T12:12:13.198Z,13.00
2023-11-01T12:14:43.801Z,13.00
2023-11-01T12:17:11.461Z,12.80
2023-11-01T12:19:48.473Z,13.00
2023-11-01T12:22:16.979Z,13.10
2023-11-01T12:24:47.936Z,13.20
2023-11-01T12:27:16.563Z,13.10
2023-11-01T12:29:45.065Z,13.10
2023-11-01T12:32:15.027Z,13.30
2023-11-01T12:34:51.058Z,13.10
2023-11-01T12:37:20.453Z,13.10
2023-11-01T12:40:22.120Z,13.10
2023-11-01T12:42:51.597Z,13.10
2023-11-01T12:45:21.384Z,13.00
2023-11-01T12:47:54.573Z,13.10
2023-11-01T12:50:34.280Z,13.10
2023-11-01T12:53:01.683Z,13.10
2023-11-01T12:55:29.468Z,13.10
2023-11-01T12:57:59.477Z,12.90
2023-11-01T13:00:33.116Z,13.10
2023-11-01T13:03:04.011Z,13.10
2023-11-01T13:05:31.749Z,13.20
2023-11-01T13:08:01.719Z,13.20
2023-11-01T13:10:29.070Z,13.90
2023-11-01T13:12:56.364Z,13.20
2023-11-01T13:15:23.892Z,13.10
2023-11-01T13:17:52.799Z,13.00
2023-11-01T13:20:20.266Z,13.00
2023-11-01T13:22:53.385Z,13.00
2023-11-01T13:25:21.945Z,13.10
2023-11-01T13:27:49.336Z,13.20
2023-11-01T13:30:16.864Z,13.20
2023-11-01T13:32:45.118Z,13.10
2023-11-01T13:35:12.473Z,13.00
2023-11-01T13:37:39.844Z,13.00
2023-11-01T13:40:07.909Z,13.00
2023-11-01T13:42:35.428Z,12.90
2023-11-01T13:45:02.944Z,12.90
2023-11-01T13:47:32.600Z,12.50
2023-11-01T13:50:00.338Z,12.80
2023-11-01T13:52:28.584Z,12.40
2023-11-01T13:54:55.927Z,12.80
2023-11-01T13:57:23.785Z,13.20
2023-11-01T13:59:51.233Z,12.80
2023-11-01T14:02:18.754Z,12.80
2023-11-01T14:04:46.179Z,12.70
2023-11-01T14:07:13.549Z,12.80
2023-11-01T14:09:40.881Z,12.80
2023-11-01T14:12:08.353Z,12.80
2023-11-01T14:14:35.842Z,12.80
2023-11-01T14:17:03.275Z,12.70
2023-11-01T14:19:30.638Z,12.70
2023-11-01T14:21:58.348Z,12.70
2023-11-01T14:24:25.800Z,12.70
2023-11-01T14:26:53.522Z,12.70
2023-11-01T14:29:20.894Z,12.70
2023-11-01T14:31:48.223Z,12.70
2023-11-01T14:34:15.674Z,12.70
2023-11-01T14:36:43.535Z,12.60
2023-11-01T14:39:10.928Z,12.40
2023-11-01T14:41:38.522Z,12.60
2023-11-01T14:44:06.632Z,12.60
2023-11-01T14:46:34.542Z,12.70
2023-11-01T14:49:01.868Z,12.70
2023-11-01T14:51:29.515Z,12.60
2023-11-01T14:53:56.946Z,12.60
2023-11-01T14:56:25.451Z,12.60
2023-11-01T15:01:22.747Z,12.50
2023-11-01T15:03:50.428Z,12.50
2023-11-01T15:06:17.883Z,12.50
2023-11-01T15:08:45.295Z,12.50
2023-11-01T15:11:12.838Z,12.50
2023-11-01T15:13:40.397Z,12.50
2023-11-01T15:16:08.331Z,12.50
2023-11-01T15:18:37.123Z,12.50
2023-11-01T15:21:06.867Z,12.40
2023-11-01T15:23:35.262Z,12.40
2023-11-01T15:26:02.707Z,12.40
2023-11-01T15:28:30.004Z,12.30
2023-11-01T15:30:57.626Z,12.30
2023-11-01T15:33:26.007Z,12.30
2023-11-01T15:35:53.581Z,12.30
2023-11-01T15:38:21.292Z,12.30
2023-11-01T15:40:48.637Z,12.20
2023-11-01T15:43:16.017Z,12.20
2023-11-01T15:45:45.119Z,12.20
2023-11-01T15:48:12.613Z,12.20
2023-11-01T15:50:42.812Z,12.20
2023-11-01T15:53:10.359Z,12.10
2023-11-01T15:55:37.812Z,12.30
2023-11-01T15:58:05.189Z,12.10
2023-11-01T16:00:32.506Z,12.10
2023-11-01T16:03:01.053Z,12.00
2023-11-01T16:05:28.788Z,11.80
2023-11-01T16:07:56.174Z,12.00
2023-11-01T16:10:23.580Z,12.00
2023-11-01T16:12:51.020Z,12.00
2023-11-01T16:15:18.724Z,11.90
2023-11-01T16:17:46.793Z,11.90
2023-11-01T16:20:14.196Z,11.90
2023-11-01T16:22:41.555Z,12.00
2023-11-01T16:25:09.494Z,11.80
2023-11-01T16:27:36.838Z,11.90
2023-11-01T16:30:04.743Z,11.80
2023-11-01T16:32:33.144Z,11.80
2023-11-01T16:35:00.530Z,12.30
2023-11-01T16:37:29.527Z,11.80
2023-11-01T16:39:56.943Z,11.80
2023-11-01T16:42:24.517Z,11.80
2023-11-01T16:44:51.891Z,11.70
2023-11-01T16:47:19.333Z,11.70
2023-11-01T16:49:50.335Z,11.60
2023-11-01T16:52:17.650Z,11.50
2023-11-01T16:54:46.373Z,11.50
2023-11-01T16:57:13.832Z,11.30
2023-11-01T16:59:41.203Z,11.40
2023-11-01T17:02:11.586Z,11.30
2023-11-01T17:04:39.180Z,11.30
2023-11-01T17:07:06.699Z,11.30
2023-11-01T17:09:34.004Z,11.20
2023-11-01T17:12:02.010Z,11.20
2023-11-01T17:14:29.908Z,11.20
2023-11-01T17:16:57.546Z,11.10
2023-11-01T17:19:24.850Z,11.10
2023-11-01T17:21:52.164Z,11.00
2023-11-01T17:24:25.720Z,11.00
2023-11-01T17:26:58.701Z,11.00
2023-11-01T17:29:33.807Z,11.00
2023-11-01T17:32:01.358Z,10.90
2023-11-01T17:34:30.417Z,10.90
2023-11-01T17:37:00.252Z,10.90
2023-11-01T17:39:42.179Z,10.90
2023-11-01T17:42:12.349Z,10.80
2023-11-01T17:44:41.735Z,10.90
2023-11-01T17:47:14.252Z,10.80
2023-11-01T17:49:44.841Z,10.80
2023-11-01T17:52:13.695Z,10.80
2023-11-01T17:54:41.128Z,10.70
2023-11-01T17:57:08.590Z,10.80
2023-11-01T17:59:40.169Z,10.70
2023-11-01T18:02:29.932Z,10.70
2023-11-01T18:05:01.360Z,10.40
2023-11-01T18:07:29.071Z,10.80
2023-11-01T18:09:58.661Z,10.80
2023-11-01T18:12:32.602Z,10.60
2023-11-01T18:14:59.996Z,10.80
2023-11-01T18:17:32.898Z,10.70
2023-11-01T18:20:04.237Z,10.70
2023-11-01T18:22:43.062Z,11.50
2023-11-01T18:25:28.967Z,10.60
2023-11-01T18:28:54.745Z,10.60
2023-11-01T18:31:31.270Z,10.90
2023-11-01T18:34:01.250Z,10.50
2023-11-01T18:36:31.785Z,10.50
2023-11-01T18:39:00.624Z,10.40
2023-11-01T18:41:32.310Z,10.40
2023-11-01T18:44:03.032Z,10.40
2023-11-01T18:46:36.088Z,10.40
2023-11-01T18:49:05.776Z,10.40
2023-11-01T18:51:51.671Z,10.40
2023-11-01T18:54:19.189Z,10.30
2023-11-01T18:56:48.177Z,10.30
2023-11-01T18:59:29.650Z,10.30
2023-11-01T19:01:56.979Z,10.30
2023-11-01T19:04:24.438Z,10.30
2023-11-01T19:06:51.895Z,10.20
2023-11-01T19:09:21.449Z,10.20
2023-11-01T19:11:50.006Z,10.20
2023-11-01T19:14:17.463Z,10.20
2023-11-01T19:16:45.002Z,10.20
2023-11-01T19:19:12.495Z,10.20
2023-11-01T19:32:26.568Z,10.20
2023-11-01T19:34:54.023Z,10.20
2023-11-01T19:37:21.380Z,10.20
2023-11-01T19:39:49.432Z,10.20
2023-11-01T19:42:16.985Z,10.30
2023-11-01T19:44:44.694Z,10.30
2023-11-01T19:47:12.106Z,10.30
2023-11-01T19:49:39.601Z,10.30
2023-11-01T19:52:06.999Z,10.30
2023-11-01T19:54:34.285Z,10.30
2023-11-01T19:57:01.619Z,10.30
2023-11-01T19:59:28.986Z,10.30
2023-11-01T20:01:56.415Z,10.90
2023-11-01T20:04:23.783Z,10.30
2023-11-01T20:06:51.482Z,10.30
2023-11-01T20:09:18.896Z,10.30
2023-11-01T20:11:47.759Z,10.30
2023-11-01T20:14:18.596Z,10.30
2023-11-01T20:16:47.211Z,10.30
2023-11-01T20:19:16.491Z,10.30
2023-11-01T20:21:44.186Z,10.30
2023-11-01T20:24:12.001Z,10.30
2023-11-01T20:26:39.444Z,10.30
2023-11-01T20:29:07.777Z,10.30
2023-11-01T20:31:35.705Z,10.30
2023-11-01T20:34:03.119Z,10.30
2023-11-01T20:36:30.674Z,10.30
2023-11-01T20:38:58.070Z,10.30
2023-11-01T20:41:25.374Z,10.30
2023-11-01T20:43:52.715Z,10.30
2023-11-01T20:46:20.738Z,10.30
2023-11-01T20:48:48.352Z,10.40
2023-11-01T20:51:21.498Z,10.40
2023-11-01T20:53:49.246Z,10.40
2023-11-01T20:56:16.549Z,10.40
2023-11-01T20:58:43.942Z,10.40
2023-11-01T21:01:12.189Z,10.40
2023-11-01T21:03:40.914Z,10.80
2023-11-01T21:06:08.640Z,10.60
2023-11-01T21:08:35.997Z,10.40
2023-11-01T21:11:04.439Z,10.50
2023-11-01T21:13:31.778Z,10.50
2023-11-01T21:16:00.811Z,10.50
2023-11-01T21:18:28.391Z,10.40
2023-11-01T21:20:55.888Z,10.40
2023-11-01T21:23:23.248Z,10.20
2023-11-01T21:25:50.558Z,10.40
2023-11-01T21:28:17.908Z,10.40
2023-11-01T21:30:45.325Z,10.50
2023-11-01T21:33:12.812Z,10.50
2023-11-01T21:35:40.345Z,10.50
2023-11-01T21:38:08.424Z,10.50
2023-11-01T21:40:36.152Z,10.50
2023-11-01T21:43:04.972Z,10.50
2023-11-01T21:45:50.110Z,10.50
2023-11-01T21:48:21.580Z,10.30
2023-11-01T21:51:03.400Z,10.50
2023-11-01T21:53:32.838Z,10.50
2023-11-01T21:56:01.037Z,10.50
2023-11-01T21:58:31.504Z,10.50
2023-11-01T22:01:05.223Z,10.50
2023-11-01T22:03:43.839Z,10.50
2023-11-01T22:06:13.603Z,10.70
2023-11-01T22:09:00.143Z,10.60
2023-11-01T22:11:30.207Z,10.50
2023-11-01T22:13:59.110Z,10.60
2023-11-01T22:16:31.972Z,10.70
2023-11-01T22:19:22.219Z,10.60
2023-11-01T22:21:49.567Z,10.60
2023-11-01T22:24:16.981Z,10.70
2023-11-01T22:26:46.192Z,9.80
2023-11-01T22:29:39.943Z,10.70
2023-11-01T22:32:08.568Z,10.80
2023-11-01T22:34:40.970Z,10.70
2023-11-01T22:37:08.518Z,10.80
2023-11-01T22:39:45.402Z,10.70
2023-11-01T22:42:19.105Z,10.70
2023-11-01T22:44:46.743Z,10.70
2023-11-01T22:47:14.585Z,10.60
2023-11-01T22:49:42.601Z,10.60
2023-11-01T22:52:09.930Z,10.60
2023-11-01T22:54:37.672Z,10.50
2023-11-01T22:57:05.775Z,10.50
2023-11-01T22:59:33.349Z,10.40
2023-11-01T23:02:01.051Z,10.40
2023-11-01T23:04:28.544Z,10.40
2023-11-01T23:06:55.917Z,10.40
2023-11-01T23:09:23.356Z,10.40
2023-11-01T23:11:50.769Z,10.40
2023-11-01T23:14:18.253Z,10.20
2023-11-01T23:16:45.826Z,10.40
2023-11-01T23:19:13.579Z,10.40
2023-11-01T23:21:41.088Z,10.40
2023-11-01T23:24:13.185Z,10.40
2023-11-01T23:26:54.883Z,10.40
2023-11-01T23:29:38.967Z,10.40
2023-11-01T23:32:14.109Z,10.40
2023-11-01T23:34:52.942Z,10.50
2023-11-01T23:37:37.718Z,10.50
2023-11-01T23:40:09.780Z,10.50
2023-11-01T23:42:37.323Z,10.50
2023-11-01T23:45:39.452Z,10.50
2023-11-01T23:48:08.402Z,10.50
2023-11-01T23:50:39.284Z,10.50
2023-11-01T23:53:13.771Z,10.50
2023-11-01T23:55:44.225Z,10.50
2023-11-01T23:58:12.129Z,10.50
